createdAt,value
2017-10-04T00:02:17.641Z,71.80
2017-10-04T00:04:44.047Z,71.40
2017-10-04T00:07:11.208Z,72.50
2017-10-04T00:09:37.687Z,71.90
2017-10-04T00:12:04.113Z,71.80
2017-10-04T00:14:30.534Z,71.20
2017-10-04T00:16:56.947Z,71.00
2017-10-04T00:19:24.086Z,69.80
2017-10-04T00:21:51.252Z,70.10
2017-10-04T00:24:18.374Z,70.30
2017-10-04T00:26:45.506Z,70.30
2017-10-04T00:29:13.384Z,70.30
2017-10-04T00:31:39.784Z,70.30
2017-10-04T00:34:06.185Z,71.00
2017-10-04T00:36:32.629Z,70.40
2017-10-04T00:38:59.052Z,70.50
2017-10-04T00:41:25.447Z,70.70
2017-10-04T00:43:51.887Z,71.30
2017-10-04T00:46:18.316Z,71.30
2017-10-04T00:48:44.712Z,71.40
2017-10-04T00:51:11.138Z,71.70
2017-10-04T00:53:37.568Z,71.20
2017-10-04T00:56:04.010Z,70.50
2017-10-04T00:58:30.478Z,70.60
2017-10-04T01:00:56.905Z,70.80
2017-10-04T01:03:23.313Z,69.80
2017-10-04T01:05:49.743Z,70.60
2017-10-04T01:08:16.208Z,70.70
2017-10-04T01:10:42.641Z,71.10
2017-10-04T01:13:09.801Z,70.90
2017-10-04T01:15:37.116Z,72.30
2017-10-04T01:18:03.552Z,71.50
2017-10-04T01:20:30.002Z,71.60
2017-10-04T01:22:56.386Z,71.20
2017-10-04T01:25:22.827Z,71.40
2017-10-04T01:27:49.256Z,70.90
2017-10-04T01:30:15.725Z,70.40
2017-10-04T01:32:42.145Z,70.00
2017-10-04T01:35:08.519Z,70.70
2017-10-04T01:37:35.664Z,71.60
2017-10-04T01:40:02.838Z,72.90
2017-10-04T01:42:30.781Z,72.60
2017-10-04T01:44:57.213Z,72.50
2017-10-04T01:47:23.610Z,72.50
2017-10-04T01:49:50.080Z,72.40
2017-10-04T01:52:16.547Z,72.50
2017-10-04T01:54:42.966Z,72.60
2017-10-04T01:57:10.122Z,71.40
2017-10-04T01:59:36.549Z,71.40
2017-10-04T02:02:03.684Z,71.80
2017-10-04T02:04:30.060Z,71.80
2017-10-04T02:06:56.467Z,72.40
2017-10-04T02:09:22.852Z,72.60
2017-10-04T02:11:49.265Z,72.90
2017-10-04T02:14:15.644Z,72.50
2017-10-04T02:16:42.027Z,72.80
2017-10-04T02:19:08.440Z,72.30
2017-10-04T02:21:34.836Z,71.80
2017-10-04T02:24:01.301Z,71.20
2017-10-04T02:26:27.698Z,71.20
2017-10-04T02:28:54.112Z,71.70
2017-10-04T02:31:20.578Z,72.00
2017-10-04T02:33:47.741Z,72.90
2017-10-04T02:36:14.207Z,72.90
2017-10-04T02:38:40.620Z,73.50
2017-10-04T02:41:07.016Z,73.40
2017-10-04T02:43:34.149Z,73.40
2017-10-04T02:46:02.112Z,73.20
2017-10-04T02:48:28.504Z,73.20
2017-10-04T02:50:54.918Z,72.90
2017-10-04T02:53:21.333Z,72.80
2017-10-04T02:55:47.788Z,71.90
2017-10-04T02:58:14.186Z,72.40
2017-10-04T03:00:41.356Z,72.20
2017-10-04T03:03:08.505Z,72.40
2017-10-04T03:05:35.635Z,73.20
2017-10-04T03:08:02.765Z,73.60
2017-10-04T03:10:29.162Z,73.50
2017-10-04T03:12:55.591Z,72.90
2017-10-04T03:15:22.021Z,72.50
2017-10-04T03:17:48.409Z,72.20
2017-10-04T03:20:14.796Z,72.50
2017-10-04T03:22:41.208Z,72.40
2017-10-04T03:25:08.407Z,72.80
2017-10-04T03:27:34.821Z,72.70
2017-10-04T03:30:01.263Z,73.40
2017-10-04T03:32:27.674Z,73.50
2017-10-04T03:34:54.069Z,73.60
2017-10-04T03:37:21.215Z,73.30
2017-10-04T03:39:49.099Z,73.90
2017-10-04T03:42:16.232Z,73.70
2017-10-04T03:44:43.380Z,74.20
2017-10-04T03:47:09.774Z,73.60
2017-10-04T03:49:36.162Z,73.10
2017-10-04T03:52:03.352Z,72.90
2017-10-04T03:54:29.777Z,72.70
2017-10-04T03:56:56.168Z,73.10
2017-10-04T03:59:23.286Z,74.30
2017-10-04T04:01:49.670Z,74.30
2017-10-04T04:04:16.074Z,72.90
2017-10-04T04:06:42.477Z,72.50
2017-10-04T04:09:08.899Z,72.00
2017-10-04T04:11:35.512Z,71.90
2017-10-04T04:14:01.950Z,72.50
2017-10-04T04:16:28.362Z,73.30
2017-10-04T04:18:55.520Z,73.80
2017-10-04T04:21:21.922Z,73.70
2017-10-04T04:23:49.054Z,72.60
2017-10-04T04:26:16.961Z,72.10
2017-10-04T04:28:43.454Z,72.20
2017-10-04T04:31:09.840Z,72.60
2017-10-04T04:33:36.263Z,73.20
2017-10-04T04:36:02.856Z,73.70
2017-10-04T04:38:42.997Z,74.00
2017-10-04T04:41:09.401Z,74.00
2017-10-04T04:43:35.806Z,74.30
2017-10-04T04:46:04.651Z,73.70
2017-10-04T04:48:31.054Z,73.70
2017-10-04T04:50:57.475Z,73.60
2017-10-04T04:53:24.634Z,73.30
2017-10-04T04:55:51.110Z,73.20
2017-10-04T04:58:17.517Z,73.90
2017-10-04T05:00:43.940Z,73.80
2017-10-04T05:03:10.338Z,73.80
2017-10-04T05:05:37.511Z,73.00
2017-10-04T05:08:03.933Z,72.90
2017-10-04T05:10:30.378Z,72.90
2017-10-04T05:12:56.807Z,73.50
2017-10-04T05:15:23.217Z,73.20
2017-10-04T05:17:50.382Z,73.60
2017-10-04T05:20:16.830Z,73.50
2017-10-04T05:22:43.252Z,73.80
2017-10-04T05:25:09.649Z,74.40
2017-10-04T05:27:36.057Z,75.20
2017-10-04T05:30:03.228Z,75.30
2017-10-04T05:32:29.669Z,75.40
2017-10-04T05:34:56.064Z,75.80
2017-10-04T05:37:22.583Z,76.10
2017-10-04T05:39:48.982Z,76.10
2017-10-04T05:42:16.126Z,76.40
2017-10-04T05:44:43.260Z,75.10
2017-10-04T05:47:11.155Z,75.10
2017-10-04T05:49:37.544Z,75.10
2017-10-04T05:52:03.940Z,75.40
2017-10-04T05:54:30.494Z,75.20
2017-10-04T05:56:56.882Z,74.80
2017-10-04T05:59:23.310Z,74.30
2017-10-04T06:01:49.742Z,74.90
2017-10-04T06:04:16.149Z,75.10
2017-10-04T06:06:42.565Z,74.90
2017-10-04T06:09:08.967Z,74.60
2017-10-04T06:11:35.335Z,74.70
2017-10-04T06:14:01.725Z,72.80
2017-10-04T06:16:28.178Z,72.80
2017-10-04T06:18:54.617Z,73.20
2017-10-04T06:21:21.041Z,72.60
2017-10-04T06:23:47.473Z,72.00
2017-10-04T06:26:13.852Z,72.50
2017-10-04T06:28:40.256Z,72.00
2017-10-04T06:31:06.681Z,70.60
2017-10-04T06:33:33.133Z,70.80
2017-10-04T06:35:59.559Z,69.50
2017-10-04T06:38:25.984Z,69.20
2017-10-04T06:40:52.430Z,69.40
2017-10-04T06:43:18.856Z,69.60
2017-10-04T06:45:45.249Z,68.00
2017-10-04T06:48:12.372Z,64.80
2017-10-04T06:50:39.523Z,65.40
2017-10-04T06:53:06.663Z,64.00
2017-10-04T06:55:33.154Z,64.50
2017-10-04T06:57:59.567Z,63.80
2017-10-04T07:00:25.996Z,64.40
2017-10-04T07:02:52.464Z,63.50
2017-10-04T07:05:18.903Z,64.20
2017-10-04T07:07:45.327Z,64.00
2017-10-04T07:10:11.824Z,64.10
2017-10-04T07:12:38.292Z,65.30
2017-10-04T07:15:04.721Z,64.60
2017-10-04T07:17:31.131Z,65.00
2017-10-04T07:19:57.595Z,65.20
2017-10-04T07:22:23.972Z,65.20
2017-10-04T07:24:51.204Z,67.10
2017-10-04T07:27:17.613Z,66.30
2017-10-04T07:29:44.002Z,65.40
2017-10-04T07:32:12.014Z,66.30
2017-10-04T07:34:38.446Z,66.30
2017-10-04T07:37:04.874Z,65.10
2017-10-04T07:39:31.331Z,64.00
2017-10-04T07:41:57.751Z,63.20
2017-10-04T07:44:24.200Z,64.50
2017-10-04T07:46:50.626Z,63.90
2017-10-04T07:49:17.036Z,64.00
2017-10-04T07:51:43.433Z,63.50
2017-10-04T07:54:10.629Z,62.70
2017-10-04T07:56:37.043Z,62.80
2017-10-04T07:59:03.503Z,63.70
2017-10-04T08:01:29.950Z,62.40
2017-10-04T08:03:56.382Z,63.60
2017-10-04T08:06:22.850Z,63.70
2017-10-04T08:08:49.999Z,64.30
2017-10-04T08:11:32.061Z,62.90
2017-10-04T08:13:58.478Z,63.00
2017-10-04T08:16:24.883Z,63.90
2017-10-04T08:18:51.323Z,63.20
2017-10-04T08:21:17.726Z,62.80
2017-10-04T08:23:44.897Z,64.20
2017-10-04T08:26:11.295Z,64.00
2017-10-04T08:28:39.189Z,63.60
2017-10-04T08:31:05.605Z,63.50
2017-10-04T08:33:32.756Z,63.20
2017-10-04T08:35:59.930Z,62.30
2017-10-04T08:38:26.329Z,62.30
2017-10-04T08:40:52.756Z,62.10
2017-10-04T08:43:19.160Z,63.50
2017-10-04T08:45:45.584Z,63.20
2017-10-04T08:48:32.917Z,63.10
2017-10-04T08:50:59.384Z,63.60
2017-10-04T08:53:26.568Z,63.90
2017-10-04T08:55:52.943Z,63.90
2017-10-04T08:58:19.348Z,62.30
2017-10-04T09:00:45.842Z,63.30
2017-10-04T09:03:13.011Z,62.60
2017-10-04T09:05:57.998Z,62.20
2017-10-04T09:08:24.425Z,62.20
2017-10-04T09:10:50.822Z,62.50
2017-10-04T09:13:17.980Z,62.80
2017-10-04T09:15:45.158Z,62.90
2017-10-04T09:18:11.552Z,62.90
2017-10-04T09:20:38.724Z,61.60
2017-10-04T09:23:06.014Z,60.80
2017-10-04T09:25:32.432Z,60.80
2017-10-04T09:27:58.838Z,63.10
2017-10-04T09:30:25.990Z,61.90
2017-10-04T09:32:52.473Z,61.90
2017-10-04T09:35:18.932Z,60.70
2017-10-04T09:37:46.141Z,61.90
2017-10-04T09:42:44.734Z,61.00
2017-10-04T09:45:11.161Z,59.90
2017-10-04T09:47:37.581Z,60.70
2017-10-04T09:50:03.998Z,59.40
2017-10-04T09:52:31.213Z,57.90
2017-10-04T09:54:57.629Z,57.80
2017-10-04T09:57:24.086Z,59.40
2017-10-04T09:59:50.535Z,59.90
2017-10-04T10:02:16.928Z,58.90
2017-10-04T10:04:43.310Z,59.10
2017-10-04T10:07:10.461Z,58.60
2017-10-04T10:09:37.636Z,58.60
2017-10-04T10:12:04.104Z,58.60
2017-10-04T10:14:30.834Z,58.80
2017-10-04T10:16:57.237Z,57.90
2017-10-04T10:19:23.664Z,57.80
2017-10-04T10:21:50.824Z,57.70
2017-10-04T10:24:17.252Z,57.70
2017-10-04T10:26:43.685Z,56.80
2017-10-04T10:29:10.094Z,57.20
2017-10-04T10:31:37.236Z,56.50
2017-10-04T10:34:05.141Z,57.10
2017-10-04T10:36:31.606Z,57.10
2017-10-04T10:38:58.048Z,57.70
2017-10-04T10:41:24.902Z,56.30
2017-10-04T10:43:51.332Z,55.70
2017-10-04T10:46:17.753Z,56.40
2017-10-04T10:48:44.166Z,56.10
2017-10-04T10:51:10.580Z,56.20
2017-10-04T10:53:36.977Z,55.20
2017-10-04T10:56:03.397Z,53.50
2017-10-04T10:58:29.805Z,54.40
2017-10-04T11:00:56.236Z,55.70
2017-10-04T11:03:22.635Z,56.60
2017-10-04T11:05:49.031Z,55.60
2017-10-04T11:08:15.441Z,56.00
2017-10-04T11:10:41.871Z,55.10
2017-10-04T11:13:08.313Z,55.30
2017-10-04T11:15:34.758Z,53.10
2017-10-04T11:18:01.256Z,54.30
2017-10-04T11:20:27.698Z,54.80
2017-10-04T11:22:54.122Z,54.50
2017-10-04T11:25:20.584Z,54.10
2017-10-04T11:27:47.075Z,54.10
2017-10-04T11:30:13.489Z,52.50
2017-10-04T11:32:40.707Z,54.70
2017-10-04T11:35:07.088Z,54.60
2017-10-04T11:37:33.517Z,53.90
2017-10-04T11:40:00.673Z,53.10
2017-10-04T11:42:27.087Z,53.30
2017-10-04T11:44:54.223Z,52.70
2017-10-04T11:47:20.611Z,52.60
2017-10-04T11:49:47.012Z,53.50
2017-10-04T11:52:14.163Z,54.40
2017-10-04T11:54:40.543Z,53.80
2017-10-04T11:57:06.932Z,50.90
2017-10-04T11:59:33.339Z,51.40
2017-10-04T12:01:59.732Z,51.90
2017-10-04T12:04:26.139Z,50.60
2017-10-04T12:06:52.522Z,49.90
2017-10-04T12:09:18.917Z,49.20
2017-10-04T12:11:45.331Z,49.60
2017-10-04T12:14:11.726Z,50.70
2017-10-04T12:16:38.108Z,50.30
2017-10-04T12:19:04.511Z,50.70
2017-10-04T12:21:31.687Z,53.70
2017-10-04T12:23:58.102Z,53.70
2017-10-04T12:26:25.233Z,50.90
2017-10-04T12:28:51.631Z,50.40
2017-10-04T12:31:18.037Z,49.30
2017-10-04T12:33:44.454Z,48.50
2017-10-04T12:36:10.845Z,49.10
2017-10-04T12:38:37.240Z,48.10
2017-10-04T12:41:03.650Z,49.50
2017-10-04T12:43:30.803Z,50.40
2017-10-04T12:45:57.268Z,50.40
2017-10-04T12:48:23.731Z,50.00
2017-10-04T12:50:50.162Z,50.10
2017-10-04T12:53:16.552Z,49.40
2017-10-04T12:55:42.986Z,48.50
2017-10-04T12:58:09.389Z,50.50
2017-10-04T13:00:35.796Z,49.90
2017-10-04T13:03:02.261Z,48.90
2017-10-04T13:05:28.764Z,48.50
2017-10-04T13:07:55.155Z,49.20
2017-10-04T13:10:21.540Z,48.60
2017-10-04T13:12:48.008Z,50.20
2017-10-04T13:15:14.473Z,50.10
2017-10-04T13:17:42.445Z,49.40
2017-10-04T13:20:08.879Z,49.40
2017-10-04T13:22:35.324Z,48.50
2017-10-04T13:25:01.774Z,49.10
2017-10-04T13:27:28.974Z,48.50
2017-10-04T13:29:55.460Z,48.50
2017-10-04T13:32:21.899Z,48.90
2017-10-04T13:34:49.096Z,49.70
2017-10-04T13:37:15.501Z,49.70
2017-10-04T13:39:42.653Z,49.60
2017-10-04T13:42:09.114Z,49.60
2017-10-04T13:44:35.564Z,48.50
2017-10-04T13:47:01.992Z,48.00
2017-10-04T13:49:28.446Z,49.10
2017-10-04T13:51:54.898Z,49.30
2017-10-04T13:54:22.071Z,47.70
2017-10-04T13:56:48.524Z,47.70
2017-10-04T13:59:14.962Z,47.70
2017-10-04T14:01:41.361Z,48.80
2017-10-04T14:04:08.509Z,49.70
2017-10-04T14:06:35.687Z,49.10
2017-10-04T14:09:02.181Z,49.10
2017-10-04T14:11:35.683Z,48.40
2017-10-04T14:14:02.878Z,48.30
2017-10-04T14:16:29.309Z,48.40
2017-10-04T14:18:55.770Z,48.80
2017-10-04T14:21:22.242Z,47.70
2017-10-04T14:23:49.468Z,47.60
2017-10-04T14:26:15.869Z,47.60
2017-10-04T14:28:42.257Z,47.30
2017-10-04T14:31:09.396Z,47.70
2017-10-04T14:33:36.579Z,47.70
2017-10-04T14:36:03.012Z,47.50
2017-10-04T14:38:29.416Z,47.80
2017-10-04T14:40:56.551Z,50.00
2017-10-04T14:43:22.979Z,49.70
2017-10-04T14:45:49.437Z,49.40
2017-10-04T14:48:16.679Z,49.30
2017-10-04T14:50:43.097Z,49.20
2017-10-04T14:53:09.544Z,49.80
2017-10-04T14:55:36.665Z,50.80
2017-10-04T14:58:03.086Z,50.70
2017-10-04T15:00:29.495Z,50.40
2017-10-04T15:02:55.881Z,50.40
2017-10-04T15:05:22.292Z,49.90
2017-10-04T15:07:48.708Z,49.30
2017-10-04T15:10:15.167Z,49.10
2017-10-04T15:12:41.561Z,49.20
2017-10-04T15:15:07.967Z,49.10
2017-10-04T15:17:35.118Z,49.10
2017-10-04T15:20:01.603Z,49.10
2017-10-04T15:22:28.032Z,49.80
2017-10-04T15:24:54.461Z,50.00
2017-10-04T15:27:20.869Z,50.20
2017-10-04T15:29:47.272Z,49.80
2017-10-04T15:32:13.660Z,50.20
2017-10-04T15:34:40.072Z,50.40
2017-10-04T15:37:06.458Z,50.70
2017-10-04T15:39:32.902Z,51.30
2017-10-04T15:41:59.324Z,51.40
2017-10-04T15:44:25.711Z,51.10
2017-10-04T15:46:52.105Z,51.90
2017-10-04T15:49:19.344Z,51.80
2017-10-04T15:51:46.606Z,52.00
2017-10-04T15:54:13.060Z,51.90
2017-10-04T15:56:39.460Z,52.40
2017-10-04T15:59:05.885Z,52.60
2017-10-04T16:01:32.373Z,53.00
2017-10-04T16:03:58.831Z,53.60
2017-10-04T16:06:25.304Z,53.60
2017-10-04T16:08:51.707Z,54.10
2017-10-04T16:11:18.107Z,54.20
2017-10-04T16:13:44.551Z,54.50
2017-10-04T16:16:10.962Z,54.40
2017-10-04T16:18:37.378Z,55.00
2017-10-04T16:21:04.577Z,55.50
2017-10-04T16:23:31.012Z,55.50
2017-10-04T16:25:57.441Z,55.30
2017-10-04T16:28:23.913Z,55.40
2017-10-04T16:30:51.091Z,55.80
2017-10-04T16:33:17.545Z,55.80
2017-10-04T16:35:43.968Z,55.80
2017-10-04T16:38:10.382Z,55.60
2017-10-04T16:40:37.508Z,55.90
2017-10-04T16:43:03.917Z,55.90
2017-10-04T16:45:30.342Z,56.10
2017-10-04T16:47:57.560Z,55.80
2017-10-04T16:50:24.036Z,56.20
2017-10-04T16:52:50.446Z,56.60
2017-10-04T16:55:16.840Z,56.40
2017-10-04T16:57:43.973Z,57.10
2017-10-04T17:00:10.422Z,57.10
2017-10-04T17:02:37.580Z,57.50
2017-10-04T17:05:04.732Z,57.60
2017-10-04T17:07:31.921Z,57.70
2017-10-04T17:09:58.394Z,57.70
2017-10-04T17:12:24.793Z,58.10
2017-10-04T17:14:51.206Z,58.60
2017-10-04T17:17:17.595Z,58.40
2017-10-04T17:19:43.973Z,58.50
2017-10-04T17:22:10.383Z,58.80
2017-10-04T17:24:36.805Z,59.10
2017-10-04T17:27:03.237Z,59.20
2017-10-04T17:29:30.458Z,59.10
2017-10-04T17:31:56.867Z,59.10
2017-10-04T17:34:23.276Z,58.90
2017-10-04T17:36:49.671Z,59.40
2017-10-04T17:39:16.077Z,59.40
2017-10-04T17:41:42.533Z,59.80
2017-10-04T17:44:08.930Z,59.80
2017-10-04T17:46:35.313Z,60.00
2017-10-04T17:49:02.460Z,60.20
2017-10-04T17:51:29.580Z,61.00
2017-10-04T17:53:55.977Z,60.60
2017-10-04T17:56:22.946Z,60.80
2017-10-04T17:58:49.321Z,61.00
2017-10-04T18:01:15.764Z,61.30
2017-10-04T18:03:42.215Z,61.40
2017-10-04T18:06:08.632Z,61.40
2017-10-04T18:08:35.773Z,61.70
2017-10-04T18:11:03.010Z,61.70
2017-10-04T18:13:30.339Z,61.90
2017-10-04T18:15:56.775Z,61.90
2017-10-04T18:18:23.240Z,62.30
2017-10-04T18:20:50.406Z,62.20
2017-10-04T18:23:17.652Z,62.60
2017-10-04T18:25:44.860Z,62.90
2017-10-04T18:28:11.273Z,62.90
2017-10-04T18:30:38.572Z,63.20
2017-10-04T18:33:05.051Z,63.10
2017-10-04T18:35:31.469Z,63.90
2017-10-04T18:37:57.903Z,63.90
2017-10-04T18:40:24.378Z,64.20
2017-10-04T18:42:50.803Z,64.40
2017-10-04T18:45:17.208Z,65.20
2017-10-04T18:47:43.675Z,65.50
2017-10-04T18:50:10.113Z,65.90
2017-10-04T18:52:36.598Z,65.80
2017-10-04T18:55:03.761Z,66.20
2017-10-04T18:57:30.955Z,65.90
2017-10-04T18:59:57.463Z,65.90
2017-10-04T19:02:23.885Z,65.70
2017-10-04T19:04:50.297Z,65.60
2017-10-04T19:07:16.754Z,65.50
2017-10-04T19:09:43.177Z,64.70
2017-10-04T19:12:09.625Z,64.90
2017-10-04T19:14:36.073Z,65.60
2017-10-04T19:17:02.514Z,66.10
2017-10-04T19:19:28.908Z,65.80
2017-10-04T19:21:55.333Z,66.20
2017-10-04T19:24:21.776Z,65.60
2017-10-04T19:26:48.217Z,65.50
2017-10-04T19:29:14.633Z,65.60
2017-10-04T19:31:41.067Z,65.50
2017-10-04T19:34:07.466Z,65.40
2017-10-04T19:36:34.053Z,65.30
2017-10-04T19:39:00.466Z,65.40
2017-10-04T19:41:26.917Z,65.30
2017-10-04T19:43:53.397Z,66.00
2017-10-04T19:46:19.805Z,64.90
2017-10-04T19:48:46.212Z,64.80
2017-10-04T19:51:12.605Z,64.70
2017-10-04T19:53:39.005Z,65.20
2017-10-04T19:56:05.405Z,65.20
2017-10-04T19:58:31.809Z,65.30
2017-10-04T20:00:58.184Z,65.20
2017-10-04T20:03:24.597Z,65.40
2017-10-04T20:05:50.988Z,65.60
2017-10-04T20:08:17.421Z,65.40
2017-10-04T20:10:43.857Z,65.50
2017-10-04T20:13:10.300Z,65.20
2017-10-04T20:15:37.433Z,65.90
2017-10-04T20:18:03.885Z,65.00
2017-10-04T20:20:30.306Z,65.00
2017-10-04T20:22:57.448Z,64.90
2017-10-04T20:25:23.869Z,64.90
2017-10-04T20:27:50.255Z,64.90
2017-10-04T20:30:17.429Z,64.10
2017-10-04T20:32:43.840Z,64.10
2017-10-04T20:35:10.229Z,64.20
2017-10-04T20:37:36.629Z,64.00
2017-10-04T20:40:03.079Z,64.10
2017-10-04T20:42:29.470Z,64.40
2017-10-04T20:44:55.902Z,64.40
2017-10-04T20:47:22.340Z,64.60
2017-10-04T20:49:48.743Z,64.30
2017-10-04T20:52:15.902Z,64.20
2017-10-04T20:54:43.033Z,64.00
2017-10-04T20:57:10.180Z,63.70
2017-10-04T20:59:36.588Z,63.60
2017-10-04T21:02:02.977Z,63.60
2017-10-04T21:04:29.447Z,63.60
2017-10-04T21:06:55.873Z,63.70
2017-10-04T21:09:22.264Z,63.40
2017-10-04T21:11:49.401Z,63.20
2017-10-04T21:14:16.543Z,63.30
2017-10-04T21:16:43.682Z,63.50
2017-10-04T21:19:10.165Z,63.50
2017-10-04T21:21:36.615Z,63.90
2017-10-04T21:24:03.025Z,64.30
2017-10-04T21:26:29.424Z,64.30
2017-10-04T21:28:55.801Z,64.50
2017-10-04T21:31:22.220Z,64.70
2017-10-04T21:33:48.640Z,64.60
2017-10-04T21:36:15.856Z,64.00
2017-10-04T21:38:42.248Z,64.00
2017-10-04T21:41:08.654Z,64.20
2017-10-04T21:43:35.802Z,63.80
2017-10-04T21:46:02.969Z,64.00
2017-10-04T21:48:29.382Z,64.00
2017-10-04T21:50:56.591Z,64.20
2017-10-04T21:53:23.015Z,64.20
2017-10-04T21:55:49.395Z,63.90
2017-10-04T21:58:16.535Z,65.30
2017-10-04T22:00:42.951Z,64.60
2017-10-04T22:03:09.348Z,64.00
2017-10-04T22:05:35.749Z,63.60
2017-10-04T22:08:02.891Z,63.60
2017-10-04T22:10:29.313Z,63.60
2017-10-04T22:12:55.711Z,63.60
2017-10-04T22:15:22.132Z,63.30
2017-10-04T22:17:48.525Z,62.80
2017-10-04T22:20:14.944Z,63.10
2017-10-04T22:22:42.102Z,63.30
2017-10-04T22:25:09.274Z,63.60
2017-10-04T22:27:35.681Z,62.90
2017-10-04T22:30:02.864Z,63.50
2017-10-04T22:32:29.264Z,64.10
2017-10-04T22:34:55.672Z,63.00
2017-10-04T22:37:22.102Z,63.00
2017-10-04T22:39:48.507Z,62.80
2017-10-04T22:42:14.912Z,62.50
2017-10-04T22:44:42.069Z,63.00
2017-10-04T22:47:08.474Z,63.00
2017-10-04T22:49:34.943Z,62.80
2017-10-04T22:52:01.313Z,62.90
2017-10-04T22:54:27.716Z,62.50
2017-10-04T22:56:54.132Z,62.40
2017-10-04T22:59:20.508Z,62.10
2017-10-04T23:01:46.911Z,61.60
2017-10-04T23:04:13.296Z,61.70
2017-10-04T23:06:39.768Z,61.90
2017-10-04T23:09:06.194Z,61.60
2017-10-04T23:11:32.623Z,61.20
2017-10-04T23:13:59.777Z,61.30
2017-10-04T23:16:26.929Z,61.20
2017-10-04T23:18:53.376Z,61.10
2017-10-04T23:21:19.800Z,61.30
2017-10-04T23:23:46.207Z,61.10
2017-10-04T23:26:13.349Z,60.60
2017-10-04T23:28:40.492Z,60.50
2017-10-04T23:31:06.875Z,60.50
2017-10-04T23:33:33.289Z,60.40
2017-10-04T23:35:59.693Z,61.50
2017-10-04T23:38:26.843Z,60.30
2017-10-04T23:40:53.261Z,60.30
2017-10-04T23:43:19.668Z,60.10
2017-10-04T23:45:46.054Z,59.80
2017-10-04T23:48:13.178Z,59.80
2017-10-04T23:50:39.627Z,59.70
2017-10-04T23:53:06.003Z,59.60
2017-10-04T23:55:32.412Z,59.40
2017-10-04T23:57:59.537Z,58.80
